createdAt,value
2023-05-24T00:00:31.667Z,1.70
2023-05-24T00:02:59.630Z,1.65
2023-05-24T00:05:31.122Z,1.60
2023-05-24T00:08:00.185Z,1.70
2023-05-24T00:10:28.097Z,1.63
2023-05-24T00:12:56.516Z,1.65
2023-05-24T00:15:24.529Z,1.70
2023-05-24T00:17:52.595Z,2.00
2023-05-24T00:20:20.863Z,1.75
2023-05-24T00:22:50.529Z,1.65
2023-05-24T00:25:18.456Z,1.63
2023-05-24T00:27:46.506Z,1.75
2023-05-24T00:30:14.458Z,1.95
2023-05-24T00:32:42.601Z,1.50
2023-05-24T00:35:10.794Z,2.08
2023-05-24T00:37:41.919Z,1.65
2023-05-24T00:40:12.278Z,1.95
2023-05-24T00:42:40.120Z,2.13
2023-05-24T00:45:09.274Z,1.83
2023-05-24T00:47:37.477Z,2.08
2023-05-24T00:50:09.385Z,1.73
2023-05-24T00:52:37.795Z,1.65
2023-05-24T00:55:06.726Z,1.50
2023-05-24T00:57:37.748Z,1.90
2023-05-24T01:00:08.058Z,1.80
2023-05-24T01:02:36.163Z,2.13
2023-05-24T01:05:04.121Z,1.63
2023-05-24T01:07:38.953Z,1.95
2023-05-24T01:10:15.570Z,1.70
2023-05-24T01:12:54.868Z,1.70
2023-05-24T01:15:26.527Z,1.50
2023-05-24T01:18:05.966Z,1.88
2023-05-24T01:20:38.452Z,1.70
2023-05-24T01:23:19.257Z,1.60
2023-05-24T01:26:07.687Z,1.93
2023-05-24T01:28:38.842Z,1.55
2023-05-24T01:31:08.463Z,2.00
2023-05-24T01:33:36.296Z,1.85
2023-05-24T01:36:04.209Z,1.25
2023-05-24T01:38:33.723Z,1.80
2023-05-24T01:41:10.010Z,2.20
2023-05-24T01:43:44.417Z,1.48
2023-05-24T01:46:20.435Z,2.30
2023-05-24T01:49:00.675Z,1.48
2023-05-24T01:51:36.697Z,1.88
2023-05-24T01:54:07.524Z,1.52
2023-05-24T01:56:36.824Z,1.63
2023-05-24T01:59:08.224Z,1.70
2023-05-24T02:01:37.337Z,2.00
2023-05-24T02:04:05.546Z,1.98
2023-05-24T02:06:33.454Z,1.70
2023-05-24T02:09:01.363Z,1.73
2023-05-24T02:11:29.360Z,1.63
2023-05-24T02:13:57.176Z,2.05
2023-05-24T02:16:27.003Z,1.92
2023-05-24T02:18:55.240Z,1.70
2023-05-24T02:21:23.522Z,1.70
2023-05-24T02:23:51.641Z,1.67
2023-05-24T02:26:19.575Z,1.80
2023-05-24T02:28:48.247Z,1.92
2023-05-24T02:31:16.114Z,1.70
2023-05-24T02:33:45.613Z,1.75
2023-05-24T02:36:13.616Z,1.65
2023-05-24T02:38:41.421Z,1.52
2023-05-24T02:41:09.256Z,1.77
2023-05-24T02:43:37.159Z,1.95
2023-05-24T02:46:05.420Z,1.60
2023-05-24T02:48:33.237Z,2.03
2023-05-24T02:51:03.424Z,1.92
2023-05-24T02:53:31.547Z,1.95
2023-05-24T02:55:59.883Z,1.98
2023-05-24T02:58:30.451Z,1.83
2023-05-24T03:00:58.710Z,1.70
2023-05-24T03:03:26.822Z,2.20
2023-05-24T03:05:54.955Z,1.80
2023-05-24T03:08:24.366Z,1.60
2023-05-24T03:10:52.270Z,1.92
2023-05-24T03:13:20.427Z,2.28
2023-05-24T03:15:49.113Z,1.85
2023-05-24T03:18:17.048Z,2.00
2023-05-24T03:20:46.499Z,2.20
2023-05-24T03:23:14.977Z,1.88
2023-05-24T03:25:45.148Z,1.73
2023-05-24T03:28:14.630Z,1.85
2023-05-24T03:30:44.213Z,1.67
2023-05-24T03:33:12.319Z,2.22
2023-05-24T03:35:40.246Z,2.17
2023-05-24T03:38:08.111Z,2.03
2023-05-24T03:40:38.714Z,2.13
2023-05-24T03:43:14.275Z,2.00
2023-05-24T03:46:02.704Z,1.92
2023-05-24T03:48:30.989Z,2.10
2023-05-24T03:51:00.290Z,2.10
2023-05-24T03:53:28.229Z,2.05
2023-05-24T03:55:56.557Z,1.92
2023-05-24T03:58:26.097Z,2.10
2023-05-24T04:00:54.241Z,2.22
2023-05-24T04:03:26.321Z,1.80
2023-05-24T04:05:54.798Z,2.00
2023-05-24T04:08:23.014Z,1.92
2023-05-24T04:10:50.955Z,1.90
2023-05-24T04:13:18.754Z,2.00
2023-05-24T04:15:48.102Z,2.42
2023-05-24T04:18:16.117Z,2.63
2023-05-24T04:20:44.341Z,1.90
2023-05-24T04:23:12.420Z,2.00
2023-05-24T04:25:40.478Z,2.22
2023-05-24T04:28:10.366Z,2.47
2023-05-24T04:30:38.815Z,2.40
2023-05-24T04:33:08.472Z,2.35
2023-05-24T04:35:36.683Z,2.50
2023-05-24T04:38:05.354Z,2.50
2023-05-24T04:40:33.240Z,3.13
2023-05-24T04:43:01.148Z,3.05
2023-05-24T04:45:30.463Z,2.70
2023-05-24T04:47:58.375Z,3.05
2023-05-24T04:50:28.651Z,3.00
2023-05-24T04:52:56.504Z,3.00
2023-05-24T04:55:24.439Z,2.85
2023-05-24T04:57:52.292Z,2.78
2023-05-24T05:00:21.358Z,2.40
2023-05-24T05:02:49.448Z,2.60
2023-05-24T05:05:17.905Z,2.58
2023-05-24T05:07:47.133Z,3.00
2023-05-24T05:10:15.122Z,2.45
2023-05-24T05:12:42.995Z,2.90
2023-05-24T05:15:11.526Z,3.50
2023-05-24T05:17:39.510Z,2.90
2023-05-24T05:20:08.933Z,2.50
2023-05-24T05:22:36.890Z,2.70
2023-05-24T05:25:10.274Z,2.90
2023-05-24T05:27:38.177Z,3.08
2023-05-24T05:30:07.077Z,2.83
2023-05-24T05:32:35.210Z,2.75
2023-05-24T05:35:03.268Z,3.17
2023-05-24T05:37:31.475Z,3.00
2023-05-24T05:39:59.394Z,2.88
2023-05-24T05:42:28.778Z,2.58
2023-05-24T05:44:56.600Z,2.50
2023-05-24T05:47:24.552Z,2.97
2023-05-24T05:49:52.417Z,3.20
2023-05-24T05:52:20.725Z,2.90
2023-05-24T05:54:48.823Z,2.58
2023-05-24T05:57:19.606Z,3.03
2023-05-24T05:59:49.091Z,3.13
2023-05-24T06:02:18.915Z,2.47
2023-05-24T06:04:47.087Z,3.40
2023-05-24T06:07:15.207Z,3.00
2023-05-24T06:09:43.249Z,2.75
2023-05-24T06:12:11.216Z,3.30
2023-05-24T06:14:39.409Z,2.95
2023-05-24T06:17:09.349Z,3.13
2023-05-24T06:19:37.217Z,3.15
2023-05-24T06:22:05.563Z,3.40
2023-05-24T06:24:34.800Z,2.78
2023-05-24T06:27:05.142Z,3.78
2023-05-24T06:29:33.489Z,3.10
2023-05-24T06:32:01.509Z,3.00
2023-05-24T06:34:30.860Z,3.13
2023-05-24T06:36:58.790Z,3.13
2023-05-24T06:39:26.749Z,3.13
2023-05-24T06:41:54.889Z,3.58
2023-05-24T06:44:31.861Z,2.85
2023-05-24T06:46:59.834Z,2.90
2023-05-24T06:49:28.383Z,3.00
2023-05-24T06:51:57.950Z,3.20
2023-05-24T06:54:25.775Z,4.20
2023-05-24T06:56:54.010Z,2.88
2023-05-24T06:59:21.921Z,2.97
2023-05-24T07:01:53.427Z,3.65
2023-05-24T07:04:21.551Z,2.95
2023-05-24T07:06:49.530Z,3.35
2023-05-24T07:09:18.865Z,3.13
2023-05-24T07:11:46.795Z,4.05
2023-05-24T07:14:14.850Z,3.50
2023-05-24T07:16:42.835Z,3.72
2023-05-24T07:19:10.821Z,3.25
2023-05-24T07:21:38.762Z,4.20
2023-05-24T07:24:07.365Z,3.80
2023-05-24T07:26:36.739Z,3.50
2023-05-24T07:29:04.668Z,3.78
2023-05-24T07:31:34.787Z,4.22
2023-05-24T07:34:02.802Z,3.22
2023-05-24T07:36:34.806Z,4.20
2023-05-24T07:39:05.685Z,3.92
2023-05-24T07:41:34.145Z,3.90
2023-05-24T07:44:03.569Z,4.55
2023-05-24T07:46:31.484Z,4.88
2023-05-24T07:48:59.755Z,4.32
2023-05-24T07:51:27.792Z,4.65
2023-05-24T07:53:55.958Z,5.13
2023-05-24T07:56:23.887Z,5.38
2023-05-24T07:58:51.884Z,5.50
2023-05-24T08:01:21.127Z,5.45
2023-05-24T08:03:49.821Z,5.82
2023-05-24T08:06:18.310Z,5.32
2023-05-24T08:08:47.767Z,5.18
2023-05-24T08:11:15.951Z,4.38
2023-05-24T08:13:45.030Z,4.15
2023-05-24T08:16:12.909Z,3.88
2023-05-24T08:18:42.194Z,4.60
2023-05-24T08:21:10.121Z,4.50
2023-05-24T08:23:38.062Z,5.25
2023-05-24T08:26:06.329Z,5.28
2023-05-24T08:28:34.282Z,4.78
2023-05-24T08:31:02.505Z,5.00
2023-05-24T08:33:30.359Z,4.50
2023-05-24T08:35:59.666Z,4.40
2023-05-24T08:38:28.832Z,5.53
2023-05-24T08:40:56.860Z,5.75
2023-05-24T08:43:25.954Z,4.72
2023-05-24T08:45:55.429Z,4.55
2023-05-24T08:48:25.137Z,4.60
2023-05-24T08:50:53.379Z,4.82
2023-05-24T08:53:23.602Z,5.00
2023-05-24T08:55:53.308Z,4.82
2023-05-24T08:58:21.555Z,5.30
2023-05-24T09:00:49.481Z,4.85
2023-05-24T09:03:18.773Z,4.60
2023-05-24T09:05:47.338Z,4.82
2023-05-24T09:08:18.220Z,5.32
2023-05-24T09:10:55.451Z,5.13
2023-05-24T09:13:25.149Z,4.95
2023-05-24T09:15:54.413Z,4.82
2023-05-24T09:18:22.384Z,5.53
2023-05-24T09:20:50.430Z,4.45
2023-05-24T09:23:19.526Z,4.25
2023-05-24T09:25:49.514Z,4.40
2023-05-24T09:28:18.924Z,4.50
2023-05-24T09:30:58.457Z,4.35
2023-05-24T09:33:31.215Z,3.95
2023-05-24T09:36:00.652Z,3.67
2023-05-24T09:38:29.709Z,4.13
2023-05-24T09:41:06.919Z,3.47
2023-05-24T09:43:36.311Z,3.58
2023-05-24T09:46:05.695Z,3.40
2023-05-24T09:48:34.027Z,3.17
2023-05-24T09:51:07.463Z,3.83
2023-05-24T09:53:36.266Z,3.40
2023-05-24T09:56:08.464Z,3.25
2023-05-24T09:58:37.372Z,3.22
2023-05-24T10:01:07.022Z,3.63
2023-05-24T10:03:35.471Z,3.25
2023-05-24T10:06:06.581Z,3.40
2023-05-24T10:08:36.000Z,3.80
2023-05-24T10:11:05.159Z,3.78
2023-05-24T10:13:35.942Z,3.58
2023-05-24T10:16:04.085Z,3.30
2023-05-24T10:18:32.075Z,3.20
2023-05-24T10:21:01.112Z,3.85
2023-05-24T10:23:32.688Z,3.08
2023-05-24T10:26:04.244Z,3.42
2023-05-24T10:28:35.033Z,4.00
2023-05-24T10:31:11.138Z,3.57
2023-05-24T10:33:40.150Z,4.15
2023-05-24T10:36:10.850Z,3.20
2023-05-24T10:38:40.790Z,3.20
2023-05-24T10:41:09.201Z,3.30
2023-05-24T10:43:39.068Z,3.25
2023-05-24T10:46:10.532Z,3.05
2023-05-24T10:48:40.557Z,2.60
2023-05-24T10:51:38.634Z,2.58
2023-05-24T10:54:14.430Z,2.47
2023-05-24T10:56:43.389Z,2.63
2023-05-24T10:59:24.287Z,3.00
2023-05-24T11:01:59.287Z,2.55
2023-05-24T11:04:29.444Z,2.60
2023-05-24T11:07:00.399Z,2.60
2023-05-24T11:09:29.786Z,2.67
2023-05-24T11:12:02.147Z,3.05
2023-05-24T11:14:33.149Z,2.42
2023-05-24T11:17:02.165Z,3.28
2023-05-24T11:19:35.362Z,3.08
2023-05-24T11:22:04.861Z,2.80
2023-05-24T11:24:34.246Z,2.83
2023-05-24T11:27:03.621Z,3.03
2023-05-24T11:29:33.304Z,3.15
2023-05-24T11:32:05.095Z,2.90
2023-05-24T11:34:33.763Z,3.85
2023-05-24T11:37:02.938Z,3.47
2023-05-24T11:39:31.927Z,3.28
2023-05-24T11:42:00.107Z,3.90
2023-05-24T11:44:33.165Z,3.55
2023-05-24T11:47:01.522Z,3.78
2023-05-24T11:49:29.832Z,3.42
2023-05-24T11:51:58.779Z,3.55
2023-05-24T11:54:28.211Z,2.70
2023-05-24T11:56:56.511Z,3.92
2023-05-24T11:59:26.283Z,5.22
2023-05-24T12:02:01.805Z,4.25
2023-05-24T12:04:31.241Z,3.00
2023-05-24T12:06:59.364Z,2.50
2023-05-24T12:09:27.916Z,2.38
2023-05-24T12:11:57.698Z,2.15
2023-05-24T12:14:28.508Z,2.60
2023-05-24T12:16:57.602Z,2.08
2023-05-24T12:19:34.384Z,2.45
2023-05-24T12:22:05.775Z,2.42
2023-05-24T12:24:33.886Z,2.50
2023-05-24T12:27:06.811Z,2.30
2023-05-24T12:29:36.479Z,2.22
2023-05-24T12:32:12.346Z,2.38
2023-05-24T12:34:43.823Z,2.38
2023-05-24T12:37:13.783Z,2.83
2023-05-24T12:39:43.549Z,2.83
2023-05-24T12:42:13.294Z,2.85
2023-05-24T12:44:41.894Z,2.45
2023-05-24T12:47:11.727Z,2.83
2023-05-24T12:49:39.922Z,2.38
2023-05-24T12:52:09.441Z,2.60
2023-05-24T12:54:37.353Z,2.75
2023-05-24T12:57:05.577Z,2.33
2023-05-24T12:59:34.952Z,2.63
2023-05-24T13:02:03.055Z,2.80
2023-05-24T13:04:33.595Z,2.92
2023-05-24T13:07:02.932Z,2.85
2023-05-24T13:09:33.271Z,3.22
2023-05-24T13:12:01.325Z,2.88
2023-05-24T13:14:29.484Z,2.75
2023-05-24T13:16:57.472Z,2.70
2023-05-24T13:19:25.315Z,3.78
2023-05-24T13:21:53.347Z,2.78
2023-05-24T13:24:21.296Z,2.90
2023-05-24T13:26:52.971Z,2.92
2023-05-24T13:29:36.583Z,2.15
2023-05-24T13:32:07.841Z,2.38
2023-05-24T13:34:36.393Z,2.70
2023-05-24T13:37:04.727Z,2.10
2023-05-24T13:39:32.778Z,2.40
2023-05-24T13:42:02.300Z,2.40
2023-05-24T13:44:30.684Z,2.47
2023-05-24T13:46:58.711Z,2.40
2023-05-24T13:49:26.715Z,2.40
2023-05-24T13:51:58.013Z,2.60
2023-05-24T13:54:26.514Z,2.60
2023-05-24T13:56:57.259Z,2.65
2023-05-24T13:59:27.171Z,2.42
2023-05-24T14:01:55.229Z,2.78
2023-05-24T14:04:23.429Z,2.42
2023-05-24T14:06:51.350Z,2.30
2023-05-24T14:09:21.285Z,2.53
2023-05-24T14:11:49.303Z,2.70
2023-05-24T14:16:52.376Z,2.70
2023-05-24T14:19:20.572Z,2.80
2023-05-24T14:21:48.472Z,2.90
2023-05-24T14:24:16.937Z,3.13
2023-05-24T14:26:45.945Z,2.58
2023-05-24T14:29:14.429Z,2.60
2023-05-24T14:31:43.050Z,2.80
2023-05-24T14:34:12.753Z,2.47
2023-05-24T14:36:41.729Z,2.65
2023-05-24T14:39:10.188Z,2.63
2023-05-24T14:41:38.178Z,2.63
2023-05-24T14:44:06.971Z,2.70
2023-05-24T14:46:36.012Z,2.67
2023-05-24T14:49:04.814Z,2.47
2023-05-24T14:51:34.228Z,2.40
2023-05-24T14:54:02.304Z,2.55
2023-05-24T14:56:30.258Z,2.50
2023-05-24T14:58:58.648Z,2.60
2023-05-24T15:01:26.904Z,2.67
2023-05-24T15:03:55.128Z,2.63
2023-05-24T15:06:23.221Z,2.25
2023-05-24T15:08:52.977Z,2.58
2023-05-24T15:11:20.847Z,2.50
2023-05-24T15:13:48.714Z,2.20
2023-05-24T15:16:16.535Z,2.40
2023-05-24T15:18:44.520Z,3.03
2023-05-24T15:21:12.328Z,2.83
2023-05-24T15:23:40.320Z,2.38
2023-05-24T15:26:09.591Z,2.83
2023-05-24T15:28:37.723Z,2.63
2023-05-24T15:31:05.910Z,2.47
2023-05-24T15:33:34.101Z,2.63
2023-05-24T15:36:02.117Z,2.83
2023-05-24T15:38:30.109Z,2.58
2023-05-24T15:40:58.099Z,2.88
2023-05-24T15:43:27.386Z,2.72
2023-05-24T15:45:55.482Z,2.60
2023-05-24T15:48:26.350Z,2.70
2023-05-24T15:51:42.958Z,2.50
2023-05-24T15:53:52.290Z,2.30
2023-05-24T15:56:21.691Z,2.53
2023-05-24T15:58:51.355Z,2.80
2023-05-24T16:01:19.958Z,2.80
2023-05-24T16:03:48.538Z,2.95
2023-05-24T16:06:16.878Z,2.75
2023-05-24T16:08:45.108Z,2.75
2023-05-24T16:11:13.559Z,3.05
2023-05-24T16:13:41.937Z,2.70
2023-05-24T16:16:11.499Z,3.10
2023-05-24T16:18:39.355Z,2.92
2023-05-24T16:21:07.268Z,2.95
2023-05-24T16:23:35.082Z,2.45
2023-05-24T16:26:03.137Z,2.95
2023-05-24T16:28:31.063Z,3.22
2023-05-24T16:31:02.426Z,2.72
2023-05-24T16:33:31.743Z,2.40
2023-05-24T16:36:03.243Z,3.50
2023-05-24T16:38:31.646Z,2.47
2023-05-24T16:41:00.039Z,2.80
2023-05-24T16:43:27.926Z,3.20
2023-05-24T16:45:56.236Z,3.15
2023-05-24T16:48:28.345Z,2.80
2023-05-24T16:50:58.624Z,3.10
2023-05-24T16:53:27.676Z,3.53
2023-05-24T16:55:56.322Z,3.50
2023-05-24T16:58:25.353Z,3.40
2023-05-24T17:00:54.473Z,2.92
2023-05-24T17:06:45.355Z,2.90
2023-05-24T17:09:13.985Z,2.90
2023-05-24T17:11:44.285Z,3.50
2023-05-24T17:14:12.694Z,3.40
2023-05-24T17:16:40.871Z,2.80
2023-05-24T17:19:08.826Z,3.80
2023-05-24T17:21:36.787Z,3.00
2023-05-24T17:24:06.368Z,3.13
2023-05-24T17:26:34.499Z,3.20
2023-05-24T17:29:02.452Z,2.88
2023-05-24T17:31:30.505Z,3.00
2023-05-24T17:33:59.006Z,3.28
2023-05-24T17:36:26.913Z,3.17
2023-05-24T17:38:54.812Z,3.08
2023-05-24T17:41:24.080Z,3.40
2023-05-24T17:43:51.976Z,3.45
2023-05-24T17:46:20.022Z,3.30
2023-05-24T17:48:48.024Z,3.38
2023-05-24T17:51:19.357Z,3.45
2023-05-24T17:53:47.885Z,3.03
2023-05-24T17:56:16.138Z,2.97
2023-05-24T17:58:47.468Z,2.97
2023-05-24T18:01:15.733Z,2.90
2023-05-24T18:03:43.901Z,2.85
2023-05-24T18:06:12.279Z,2.75
2023-05-24T18:08:43.278Z,2.88
2023-05-24T18:11:13.246Z,3.00
2023-05-24T18:13:42.569Z,3.20
2023-05-24T18:16:13.117Z,2.95
2023-05-24T18:18:41.398Z,2.90
2023-05-24T18:21:10.543Z,2.97
2023-05-24T18:23:38.897Z,3.50
2023-05-24T18:26:11.956Z,2.70
2023-05-24T18:28:41.857Z,2.92
2023-05-24T18:31:11.452Z,2.70
2023-05-24T18:33:39.546Z,3.22
2023-05-24T18:36:08.127Z,3.00
2023-05-24T18:38:36.875Z,3.00
2023-05-24T18:41:06.495Z,3.10
2023-05-24T18:43:34.609Z,2.90
2023-05-24T18:46:02.679Z,2.97
2023-05-24T18:48:31.999Z,2.70
2023-05-24T18:51:00.332Z,2.88
2023-05-24T18:53:28.256Z,2.80
2023-05-24T18:55:56.151Z,2.97
2023-05-24T18:58:24.014Z,3.20
2023-05-24T19:00:52.128Z,2.90
2023-05-24T19:03:21.468Z,2.97
2023-05-24T19:05:51.782Z,3.17
2023-05-24T19:08:19.845Z,2.85
2023-05-24T19:10:47.744Z,3.10
2023-05-24T19:13:15.892Z,2.67
2023-05-24T19:15:44.136Z,3.10
2023-05-24T19:18:12.312Z,3.38
2023-05-24T19:20:40.148Z,3.20
2023-05-24T19:23:09.528Z,2.78
2023-05-24T19:25:42.047Z,3.20
2023-05-24T19:28:11.162Z,3.15
2023-05-24T19:30:39.096Z,3.20
2023-05-24T19:33:07.392Z,3.08
2023-05-24T19:35:36.656Z,2.85
2023-05-24T19:38:04.763Z,3.13
2023-05-24T19:40:33.967Z,2.67
2023-05-24T19:43:02.074Z,2.92
2023-05-24T19:45:30.032Z,3.17
2023-05-24T19:47:58.608Z,3.25
2023-05-24T19:50:28.989Z,3.50
2023-05-24T19:52:58.490Z,3.05
2023-05-24T19:55:26.478Z,2.80
2023-05-24T19:57:55.750Z,2.80
2023-05-24T20:00:23.794Z,2.70
2023-05-24T20:02:51.879Z,3.08
2023-05-24T20:05:19.837Z,3.40
2023-05-24T20:07:47.837Z,3.25
2023-05-24T20:10:15.681Z,2.78
2023-05-24T20:12:43.901Z,3.25
2023-05-24T20:15:16.894Z,3.20
2023-05-24T20:17:46.498Z,3.15
2023-05-24T20:20:14.644Z,3.28
2023-05-24T20:22:42.927Z,3.42
2023-05-24T20:25:11.371Z,3.55
2023-05-24T20:27:41.797Z,4.18
2023-05-24T20:30:10.384Z,4.47
2023-05-24T20:32:39.715Z,3.60
2023-05-24T20:35:08.761Z,4.20
2023-05-24T20:37:36.818Z,4.45
2023-05-24T20:40:05.920Z,4.00
2023-05-24T20:42:33.951Z,4.32
2023-05-24T20:45:01.867Z,3.97
2023-05-24T20:47:30.387Z,4.50
2023-05-24T20:49:59.993Z,4.35
2023-05-24T20:52:28.125Z,4.50
2023-05-24T20:54:56.517Z,4.38
2023-05-24T20:57:24.425Z,3.92
2023-05-24T20:59:52.337Z,4.65
2023-05-24T21:02:20.368Z,4.60
2023-05-24T21:04:48.232Z,4.78
2023-05-24T21:07:17.488Z,4.35
2023-05-24T21:09:45.457Z,5.00
2023-05-24T21:12:13.383Z,4.65
2023-05-24T21:14:41.424Z,4.43
2023-05-24T21:17:09.376Z,4.57
2023-05-24T21:19:37.284Z,5.18
2023-05-24T21:22:05.538Z,4.43
2023-05-24T21:24:34.802Z,5.22
2023-05-24T21:27:02.690Z,4.28
2023-05-24T21:29:30.642Z,4.68
2023-05-24T21:31:58.661Z,4.10
2023-05-24T21:34:27.369Z,4.43
2023-05-24T21:36:55.221Z,3.88
2023-05-24T21:39:23.116Z,4.38
2023-05-24T21:41:52.358Z,4.47
2023-05-24T21:44:20.212Z,4.22
2023-05-24T21:46:48.431Z,4.57
2023-05-24T21:49:17.254Z,5.00
2023-05-24T21:51:45.311Z,5.07
2023-05-24T21:54:13.085Z,4.80
2023-05-24T21:56:40.973Z,5.05
2023-05-24T21:59:10.162Z,4.45
2023-05-24T22:01:38.012Z,5.07
2023-05-24T22:04:06.558Z,4.40
2023-05-24T22:06:34.385Z,4.70
2023-05-24T22:09:02.602Z,5.20
2023-05-24T22:11:30.570Z,4.47
2023-05-24T22:13:58.556Z,5.00
2023-05-24T22:16:27.940Z,4.63
2023-05-24T22:18:56.627Z,4.68
2023-05-24T22:21:24.619Z,4.57
2023-05-24T22:23:52.508Z,4.22
2023-05-24T22:26:20.423Z,4.53
2023-05-24T22:28:52.638Z,4.45
2023-05-24T22:31:21.661Z,4.35
2023-05-24T22:33:50.964Z,3.83
2023-05-24T22:36:18.874Z,3.67
2023-05-24T22:38:46.699Z,4.13
2023-05-24T22:41:14.683Z,4.50
2023-05-24T22:43:42.639Z,4.60
2023-05-24T22:46:10.859Z,5.05
2023-05-24T22:48:40.547Z,4.68
2023-05-24T22:51:12.037Z,4.60
2023-05-24T22:53:39.910Z,4.35
2023-05-24T22:56:10.424Z,4.53
2023-05-24T22:58:38.656Z,4.47
2023-05-24T23:01:06.688Z,4.30
2023-05-24T23:03:34.736Z,3.63
2023-05-24T23:06:04.412Z,3.85
2023-05-24T23:08:34.678Z,3.88
2023-05-24T23:11:10.176Z,4.70
2023-05-24T23:13:38.669Z,4.20
2023-05-24T23:16:07.207Z,4.55
2023-05-24T23:18:51.593Z,4.10
2023-05-24T23:26:42.842Z,3.80
2023-05-24T23:29:59.858Z,3.88
2023-05-24T23:32:39.550Z,3.45
